Time;durP1;ratioP1;P1;durP2;ratioP2;P2;SDS_P1;SDS_P2;PMS_P1;PMS_P2;Temp;Humidity;BMP_temperature;BMP_pressure;BME280_temperature;BME280_humidity;BME280_pressure;Samples;Min_cycle;Max_cycle;Signal;HPM_P1;HPM_P2
2022/06/27 00:00:41;;;;;;;3.60;2.90;;;;;;;20.49;80.61;100592.85;107462;1270;72170;-90
2022/06/27 00:08:14;;;;;;;5.00;3.00;;;;;;;20.44;80.98;100600.45;107848;1279;76567;-90
2022/06/27 00:10:41;;;;;;;4.80;3.50;;;;;;;20.43;81.40;100619.09;107879;1279;72031;-89
2022/06/27 00:13:09;;;;;;;3.40;2.90;;;;;;;20.43;83.09;100634.38;107920;1279;74178;-89
2022/06/27 00:15:39;;;;;;;4.50;3.10;;;;;;;20.40;83.27;100647.42;107822;1277;63704;-89
2022/06/27 00:20:38;;;;;;;6.10;3.80;;;;;;;20.29;83.40;100638.72;107965;1270;74196;-89
2022/06/27 00:25:54;;;;;;;3.50;3.10;;;;;;;20.22;83.12;100624.92;107922;1279;73646;-90
2022/06/27 00:28:40;;;;;;;3.80;3.40;;;;;;;20.19;83.05;100625.45;107560;1282;62675;-90
2022/06/27 00:31:16;;;;;;;6.80;3.60;;;;;;;20.15;83.12;100634.85;107537;1282;60584;-89
2022/06/27 00:33:46;;;;;;;4.90;3.50;;;;;;;20.15;83.84;100653.00;107519;1282;75841;-89
2022/06/27 00:36:15;;;;;;;3.80;3.40;;;;;;;20.15;84.23;100656.61;107384;1282;71563;-89
2022/06/27 00:38:47;;;;;;;4.30;3.40;;;;;;;20.16;84.50;100655.43;107598;1282;72020;-89
2022/06/27 00:41:18;;;;;;;6.20;4.00;;;;;;;20.17;84.51;100656.28;107797;1281;63174;-89
2022/06/27 00:43:52;;;;;;;3.40;2.90;;;;;;;20.18;85.01;100658.98;107561;1282;61446;-88
2022/06/27 00:46:22;;;;;;;5.50;3.80;;;;;;;20.20;84.98;100664.05;107465;1282;76496;-88
2022/06/27 00:48:57;;;;;;;5.10;3.80;;;;;;;20.23;85.05;100658.27;107464;1282;71595;-87
2022/06/27 00:51:28;;;;;;;3.90;3.50;;;;;;;20.25;84.66;100648.29;107466;1281;76239;-88
2022/06/27 00:59:29;;;;;;;4.10;3.70;;;;;;;20.24;84.67;100663.10;107718;1281;76397;-88
2022/06/27 01:01:58;;;;;;;4.50;3.50;;;;;;;20.23;85.10;100669.48;107873;1280;73522;-88
2022/06/27 01:04:27;;;;;;;3.70;3.30;;;;;;;20.22;84.98;100658.36;107899;1279;73613;-88
2022/06/27 01:06:57;;;;;;;4.20;3.10;;;;;;;20.22;84.76;100647.59;107879;1281;61017;-88
2022/06/27 01:12:49;;;;;;;4.60;3.20;;;;;;;20.20;84.69;100632.39;107828;1280;74418;-89
2022/06/27 01:18:12;;;;;;;3.90;3.50;;;;;;;20.17;84.71;100640.55;108022;1269;71493;-88
2022/06/27 01:20:53;;;;;;;5.00;3.90;;;;;;;20.16;85.08;100648.42;108129;1277;61338;-88
2022/06/27 01:23:30;;;;;;;4.80;3.70;;;;;;;20.15;85.21;100653.96;107586;1278;60380;-88
2022/06/27 01:26:09;;;;;;;4.50;3.60;;;;;;;20.14;85.18;100656.04;107962;1277;76034;-89
2022/06/27 01:28:42;;;;;;;5.40;4.00;;;;;;;20.11;85.22;100644.36;108027;1278;73003;-89
2022/06/27 01:31:21;;;;;;;4.80;4.20;;;;;;;20.11;85.19;100640.75;107812;1277;71652;-89
2022/06/27 01:33:51;;;;;;;4.20;3.50;;;;;;;20.09;85.24;100635.52;107901;1280;62074;-89
2022/06/27 01:36:43;;;;;;;5.10;3.40;;;;;;;20.07;85.91;100637.86;107930;1278;61060;-89
2022/06/27 01:39:27;;;;;;;4.50;3.50;;;;;;;20.04;85.48;100644.15;107833;1279;77548;-89
2022/06/27 01:42:03;;;;;;;4.80;3.50;;;;;;;20.02;85.85;100647.47;108084;1277;71469;-89
2022/06/27 01:44:37;;;;;;;4.30;3.60;;;;;;;20.01;85.84;100651.54;108048;1277;74288;-89
2022/06/27 01:47:33;;;;;;;3.50;3.20;;;;;;;19.99;86.15;100654.98;107983;1278;62342;-89
2022/06/27 01:50:01;;;;;;;5.00;3.70;;;;;;;19.97;86.26;100664.10;107987;1278;61774;-88
2022/06/27 01:52:33;;;;;;;6.50;3.50;;;;;;;19.95;87.50;100678.23;107918;1278;76582;-89
2022/06/27 01:55:01;;;;;;;4.30;3.30;;;;;;;19.88;87.91;100683.70;107969;1278;71640;-88
2022/06/27 01:57:27;;;;;;;5.00;3.70;;;;;;;19.82;87.85;100678.61;107955;1278;59895;-88
2022/06/27 02:00:09;;;;;;;4.30;3.20;;;;;;;19.78;87.91;100672.16;107946;1277;60323;-89
2022/06/27 02:25:14;;;;;;;4.90;2.90;;;;;;;19.56;87.90;100669.66;107788;1281;71936;-89
2022/06/27 02:38:54;;;;;;;4.40;3.40;;;;;;;19.43;88.37;100689.50;107940;1281;71527;-89
2022/06/27 02:41:30;;;;;;;5.30;3.50;;;;;;;19.36;89.40;100691.16;107946;1281;62243;-89
2022/06/27 02:44:12;;;;;;;4.90;3.90;;;;;;;19.27;89.83;100693.05;107967;1280;61228;-89
2022/06/27 02:58:53;;;;;;;7.10;4.80;;;;;;;18.71;93.11;100697.34;107775;1280;59963;-89
2022/06/27 03:01:22;;;;;;;5.70;4.10;;;;;;;18.63;93.70;100707.93;107716;1281;77539;-90
2022/06/27 03:59:47;;;;;;;6.10;3.30;;;;;;;18.71;91.57;100636.22;108076;1272;67283;-89
2022/06/27 04:05:06;;;;;;;5.50;4.30;;;;;;;18.78;91.35;100643.85;107932;1272;60702;-89
2022/06/27 04:10:08;;;;;;;5.00;3.90;;;;;;;18.81;91.05;100648.27;107863;1270;74060;-88
2022/06/27 04:12:37;;;;;;;6.10;3.80;;;;;;;18.83;90.95;100643.75;107874;1280;70023;-88
2022/06/27 04:15:05;;;;;;;6.00;3.90;;;;;;;18.86;90.87;100639.73;107683;1280;73945;-88
2022/06/27 04:17:36;;;;;;;4.70;3.70;;;;;;;18.89;90.69;100640.41;107800;1280;61159;-88
2022/06/27 04:20:09;;;;;;;5.10;3.50;;;;;;;18.90;91.07;100635.27;107621;1281;61522;-88
2022/06/27 04:22:37;;;;;;;13.80;4.50;;;;;;;18.90;90.79;100625.65;107569;1281;75593;-89
2022/06/27 04:27:45;;;;;;;9.60;3.30;;;;;;;18.96;90.56;100610.09;107522;1282;72997;-82
2022/06/27 04:30:18;;;;;;;5.90;3.20;;;;;;;19.03;90.62;100602.09;107484;1282;62506;-84
2022/06/27 04:32:48;;;;;;;5.70;3.00;;;;;;;19.11;90.21;100594.96;107743;1281;61772;-80
2022/06/27 04:35:16;;;;;;;6.70;3.90;;;;;;;19.17;89.53;100588.47;107749;1281;77283;-81
2022/06/27 04:37:44;;;;;;;5.40;3.30;;;;;;;19.21;89.23;100593.08;107487;1281;71558;-82
2022/06/27 04:40:14;;;;;;;5.50;3.90;;;;;;;19.26;88.94;100590.08;107442;1281;72226;-82
2022/06/27 04:42:43;;;;;;;5.40;3.40;;;;;;;19.31;88.39;100578.78;107491;1281;62284;-82
2022/06/27 04:45:13;;;;;;;3.70;3.30;;;;;;;19.33;88.14;100576.91;107499;1281;61142;-82
2022/06/27 04:47:41;;;;;;;3.30;3.00;;;;;;;19.36;87.87;100577.98;107718;1281;77418;-82
2022/06/27 04:50:13;;;;;;;4.10;3.30;;;;;;;19.37;87.30;100575.10;107466;1281;70827;-82
2022/06/27 04:52:41;;;;;;;4.60;3.20;;;;;;;19.39;87.59;100571.48;107490;1281;71718;-82
2022/06/27 04:55:10;;;;;;;3.90;3.10;;;;;;;19.42;87.41;100571.60;107634;1281;62439;-82
2022/06/27 04:57:40;;;;;;;5.00;3.00;;;;;;;19.45;87.15;100571.60;107757;1281;61485;-82
2022/06/27 05:00:11;;;;;;;4.40;3.30;;;;;;;19.46;87.06;100567.27;108164;1281;74917;-83
2022/06/27 05:02:43;;;;;;;4.20;3.50;;;;;;;19.48;86.67;100567.73;107913;1281;72305;-84
2022/06/27 05:05:11;;;;;;;5.50;3.70;;;;;;;19.48;86.58;100565.59;107764;1281;75255;-82
2022/06/27 05:07:38;;;;;;;4.80;3.60;;;;;;;19.50;86.51;100564.71;107464;1281;62744;-82
2022/06/27 05:10:07;;;;;;;3.70;3.00;;;;;;;19.49;86.18;100557.48;107510;1281;63655;-82
2022/06/27 05:12:34;;;;;;;3.80;2.90;;;;;;;19.52;86.23;100563.80;107479;1281;77342;-82
2022/06/27 05:15:02;;;;;;;4.50;3.30;;;;;;;19.54;86.16;100568.56;107549;1282;72459;-82
2022/06/27 05:17:29;;;;;;;6.30;3.40;;;;;;;19.57;86.34;100567.65;107539;1282;76463;-83
2022/06/27 05:19:56;;;;;;;6.20;2.90;;;;;;;19.63;86.09;100570.80;107471;1282;61118;-82
2022/06/27 05:22:23;;;;;;;3.50;3.00;;;;;;;19.67;85.46;100578.52;107480;1282;61957;-83
2022/06/27 05:24:50;;;;;;;4.20;2.70;;;;;;;19.68;85.14;100576.71;107523;1282;76075;-83
2022/06/27 05:27:17;;;;;;;9.00;5.40;;;;;;;19.71;84.98;100584.85;107512;1282;72297;-82
2022/06/27 05:29:45;;;;;;;6.70;3.70;;;;;;;19.74;84.83;100583.15;107512;1281;74298;-82
2022/06/27 05:32:14;;;;;;;6.30;3.80;;;;;;;19.76;84.59;100587.95;107526;1282;62362;-81
2022/06/27 05:34:41;;;;;;;5.00;2.90;;;;;;;19.82;84.41;100585.35;108117;1271;60559;-84
2022/06/27 05:37:08;;;;;;;6.40;2.90;;;;;;;19.87;84.12;100576.15;107636;1280;76786;-84
2022/06/27 05:39:36;;;;;;;4.30;2.60;;;;;;;19.92;83.69;100574.10;107530;1281;72370;-85
2022/06/27 05:42:04;;;;;;;3.60;2.80;;;;;;;19.99;83.71;100568.63;107795;1280;72907;-83
2022/06/27 05:44:31;;;;;;;3.80;2.90;;;;;;;20.09;83.43;100566.05;107755;1280;60479;-83
2022/06/27 05:46:58;;;;;;;2.70;2.40;;;;;;;20.17;83.09;100572.98;108021;1280;60612;-83
2022/06/27 05:49:25;;;;;;;4.10;2.80;;;;;;;20.23;82.57;100581.62;108046;1280;77040;-83
2022/06/27 05:51:54;;;;;;;3.80;2.70;;;;;;;20.31;82.37;100581.91;108008;1280;71425;-83
2022/06/27 05:54:21;;;;;;;3.50;3.10;;;;;;;20.40;82.06;100579.86;107873;1280;73159;-83
2022/06/27 05:56:48;;;;;;;9.40;3.70;;;;;;;20.47;81.75;100592.38;107741;1280;63022;-84
2022/06/27 05:59:16;;;;;;;4.40;2.90;;;;;;;20.56;81.29;100600.21;107899;1280;61609;-85
2022/06/27 06:01:46;;;;;;;23.70;16.00;;;;;;;20.66;81.04;100606.22;108075;1279;77223;-84
2022/06/27 06:04:14;;;;;;;4.80;3.00;;;;;;;20.76;80.54;100616.17;107979;1279;71316;-84
2022/06/27 06:06:43;;;;;;;2.90;2.50;;;;;;;20.83;79.93;100621.85;107691;1280;71860;-84
2022/06/27 06:09:13;;;;;;;6.10;3.30;;;;;;;20.84;78.87;100634.33;107992;1280;62243;-85
2022/06/27 06:11:41;;;;;;;12.40;7.80;;;;;;;20.80;78.68;100646.83;107967;1281;61661;-86
2022/06/27 06:14:08;;;;;;;8.80;4.00;;;;;;;20.80;78.93;100657.39;107719;1281;76835;-86
2022/06/27 06:16:37;;;;;;;6.00;3.20;;;;;;;20.80;78.73;100668.44;107711;1280;71584;-85
2022/06/27 06:19:04;;;;;;;4.20;2.70;;;;;;;20.75;78.68;100666.52;108133;1281;73964;-85
2022/06/27 06:21:32;;;;;;;5.10;3.10;;;;;;;20.74;78.56;100662.09;107861;1281;62290;-85
2022/06/27 06:23:59;;;;;;;9.80;3.10;;;;;;;20.71;78.46;100655.02;107731;1280;61420;-85
2022/06/27 06:26:26;;;;;;;8.40;2.90;;;;;;;20.70;78.60;100655.50;107975;1280;77564;-85
2022/06/27 06:28:53;;;;;;;3.50;2.90;;;;;;;20.67;78.50;100656.75;107731;1281;72669;-85
2022/06/27 06:31:22;;;;;;;8.40;3.20;;;;;;;20.66;78.86;100665.35;107890;1280;73158;-86
2022/06/27 06:33:51;;;;;;;6.40;3.20;;;;;;;20.65;78.74;100671.96;107943;1280;61985;-86
2022/06/27 06:36:21;;;;;;;5.10;2.90;;;;;;;20.63;78.53;100666.52;107934;1279;60425;-86
2022/06/27 06:38:50;;;;;;;5.40;3.20;;;;;;;20.66;78.32;100663.83;107976;1279;76725;-84
2022/06/27 06:41:17;;;;;;;7.20;3.10;;;;;;;20.73;78.42;100659.86;108024;1279;70701;-84
2022/06/27 06:43:46;;;;;;;4.20;2.30;;;;;;;20.86;78.19;100655.98;107966;1279;72167;-84
2022/06/27 06:46:13;;;;;;;5.60;3.00;;;;;;;20.98;78.18;100643.61;108141;1279;62027;-84
2022/06/27 06:48:43;;;;;;;9.20;3.30;;;;;;;21.09;77.31;100644.54;108254;1277;60338;-85
2022/06/27 06:51:16;;;;;;;9.30;3.50;;;;;;;21.21;76.87;100644.44;108056;1278;76958;-85
2022/06/27 06:53:45;;;;;;;5.20;2.90;;;;;;;21.36;76.56;100636.25;107976;1280;71547;-84
2022/06/27 06:56:12;;;;;;;5.30;2.50;;;;;;;21.54;76.32;100626.82;107985;1280;72393;-85
2022/06/27 06:58:40;;;;;;;5.30;2.70;;;;;;;21.73;75.63;100616.15;108002;1279;62261;-85
2022/06/27 07:01:06;;;;;;;12.10;3.20;;;;;;;21.92;75.17;100615.04;108060;1280;62257;-85
2022/06/27 07:03:34;;;;;;;5.00;2.60;;;;;;;22.07;74.34;100611.58;107994;1280;75808;-84
2022/06/27 07:06:03;;;;;;;10.80;4.60;;;;;;;22.19;73.82;100607.23;108077;1280;71215;-84
2022/06/27 07:08:36;;;;;;;15.20;3.40;;;;;;;22.31;73.44;100605.32;107973;1279;72892;-83
2022/06/27 07:11:08;;;;;;;6.10;3.40;;;;;;;22.44;72.98;100603.06;108160;1277;61875;-83
2022/06/27 07:13:35;;;;;;;5.00;2.60;;;;;;;22.54;72.11;100603.05;107840;1279;60519;-84
2022/06/27 07:16:03;;;;;;;7.40;3.30;;;;;;;22.61;71.89;100604.02;107774;1279;77411;-84
2022/06/27 07:18:33;;;;;;;6.60;2.80;;;;;;;22.70;71.36;100600.26;108229;1277;71450;-85
2022/06/27 07:21:00;;;;;;;7.40;3.30;;;;;;;22.74;70.96;100598.23;108153;1280;73551;-86
2022/06/27 07:23:32;;;;;;;5.10;2.60;;;;;;;22.81;71.04;100603.91;108024;1279;63603;-86
2022/06/27 07:26:11;;;;;;;6.70;3.60;;;;;;;22.89;70.43;100618.10;107912;1280;60605;-86
2022/06/27 07:28:42;;;;;;;6.90;3.20;;;;;;;22.98;69.90;100639.48;108192;1277;75882;-87
2022/06/27 07:31:12;;;;;;;5.60;2.90;;;;;;;23.03;69.96;100643.73;107992;1279;72609;-87
2022/06/27 07:33:46;;;;;;;7.80;2.70;;;;;;;23.10;69.57;100645.07;107993;1280;72941;-87
2022/06/27 07:36:17;;;;;;;7.80;2.80;;;;;;;23.14;68.83;100639.57;108164;1280;62315;-87
2022/06/27 07:38:46;;;;;;;8.10;3.60;;;;;;;23.20;69.18;100633.39;107913;1280;61409;-87
2022/06/27 07:41:15;;;;;;;6.40;3.10;;;;;;;23.24;69.04;100625.03;108056;1280;75361;-87
2022/06/27 07:43:44;;;;;;;3.80;2.60;;;;;;;23.24;68.76;100617.29;108071;1280;71496;-87
2022/06/27 07:46:11;;;;;;;4.70;2.60;;;;;;;23.25;68.49;100617.45;108024;1280;73057;-87
2022/06/27 07:48:38;;;;;;;7.70;5.20;;;;;;;23.31;68.60;100612.08;107748;1280;63045;-86
2022/06/27 07:51:05;;;;;;;9.60;7.90;;;;;;;23.36;68.17;100606.09;108129;1278;62278;-87
2022/06/27 07:53:35;;;;;;;5.70;3.30;;;;;;;23.47;68.59;100605.23;107902;1280;76936;-86
2022/06/27 07:56:06;;;;;;;4.20;3.00;;;;;;;23.64;68.31;100603.09;108200;1279;71914;-87
2022/06/27 07:58:35;;;;;;;4.40;2.70;;;;;;;23.80;68.04;100604.55;107980;1279;74173;-82
2022/06/27 08:01:07;;;;;;;4.80;3.10;;;;;;;23.97;66.89;100603.69;107938;1280;62276;-82
2022/06/27 08:03:41;;;;;;;7.20;5.00;;;;;;;24.03;66.10;100611.18;107993;1279;61855;-83
2022/06/27 08:06:19;;;;;;;5.70;2.70;;;;;;;23.98;65.53;100625.09;107997;1279;75686;-83
2022/06/27 08:08:52;;;;;;;4.30;2.90;;;;;;;23.88;65.71;100634.38;108042;1279;71214;-83
2022/06/27 08:11:21;;;;;;;8.40;3.30;;;;;;;23.99;66.11;100627.15;108007;1278;74173;-82
2022/06/27 08:13:51;;;;;;;7.10;2.80;;;;;;;24.26;66.22;100631.23;108154;1278;62149;-82
2022/06/27 08:16:20;;;;;;;4.60;2.70;;;;;;;24.49;64.65;100641.43;107945;1280;60590;-82
2022/06/27 08:18:48;;;;;;;9.40;3.20;;;;;;;24.66;64.01;100649.92;107927;1280;74745;-82
2022/06/27 08:21:20;;;;;;;12.40;3.40;;;;;;;24.71;62.78;100659.26;108030;1278;71583;-82
2022/06/27 08:23:51;;;;;;;15.80;4.20;;;;;;;24.78;62.99;100656.05;107965;1279;72961;-83
2022/06/27 08:26:18;;;;;;;14.40;4.20;;;;;;;24.74;63.02;100654.98;108108;1279;60633;-86
2022/06/27 08:28:47;;;;;;;9.00;3.40;;;;;;;24.74;63.55;100645.33;108134;1277;61637;-86
2022/06/27 08:31:15;;;;;;;8.20;3.60;;;;;;;24.76;63.05;100642.55;107976;1279;75904;-84
2022/06/27 08:33:51;;;;;;;7.40;3.80;;;;;;;24.69;62.12;100652.20;107957;1279;72182;-85
2022/06/27 08:36:19;;;;;;;9.30;3.50;;;;;;;24.48;62.23;100656.34;108052;1279;72992;-87
2022/06/27 08:38:48;;;;;;;5.20;3.10;;;;;;;24.37;62.91;100667.04;107879;1279;61376;-86
2022/06/27 08:41:19;;;;;;;6.90;3.10;;;;;;;24.40;63.58;100673.77;107896;1279;60695;-86
2022/06/27 08:43:48;;;;;;;6.90;3.00;;;;;;;24.60;63.49;100665.80;107979;1280;77438;-86
2022/06/27 08:46:16;;;;;;;4.40;2.70;;;;;;;24.89;62.63;100668.55;108029;1279;72082;-86
2022/06/27 08:48:47;;;;;;;4.30;2.30;;;;;;;24.98;61.48;100668.61;107284;1280;921187;-86
2022/06/27 08:51:14;;;;;;;6.10;2.70;;;;;;;25.12;60.85;100669.41;108013;1279;60279;-86
2022/06/27 08:53:41;;;;;;;6.60;2.80;;;;;;;25.17;60.53;100666.64;108166;1280;60718;-82
2022/06/27 08:56:10;;;;;;;3.60;3.00;;;;;;;25.27;59.84;100660.45;108262;1278;75253;-83
2022/06/27 08:58:37;;;;;;;6.50;3.50;;;;;;;25.41;59.83;100662.77;107962;1279;71403;-83
2022/06/27 09:01:09;;;;;;;3.30;2.30;;;;;;;25.49;59.37;100655.96;107986;1280;72163;-82
2022/06/27 09:03:37;;;;;;;3.70;2.40;;;;;;;25.49;58.68;100656.07;108035;1279;59482;-82
2022/06/27 09:06:10;;;;;;;2.90;2.30;;;;;;;25.37;58.65;100651.20;107989;1280;60750;-82
2022/06/27 09:09:03;;;;;;;6.60;3.10;;;;;;;25.38;59.24;100646.31;108055;1277;76754;-82
2022/06/27 09:11:32;;;;;;;4.10;2.50;;;;;;;25.66;59.58;100641.18;107998;1280;71381;-82
2022/06/27 09:13:59;;;;;;;15.20;9.70;;;;;;;25.77;58.29;100651.69;108082;1279;74108;-82
2022/06/27 09:16:27;;;;;;;6.50;3.40;;;;;;;25.75;58.00;100653.71;108086;1279;60528;-82
2022/06/27 09:19:02;;;;;;;5.10;3.10;;;;;;;25.77;58.04;100662.95;108046;1279;61185;-82
2022/06/27 09:21:29;;;;;;;11.70;5.40;;;;;;;25.70;57.56;100665.02;108128;1279;75846;-81
2022/06/27 09:24:01;;;;;;;7.40;3.10;;;;;;;25.67;57.63;100669.70;107896;1280;72649;-83
2022/06/27 09:26:30;;;;;;;5.50;3.20;;;;;;;25.70;57.71;100673.13;107758;1280;72501;-81
2022/06/27 09:29:07;;;;;;;6.50;3.40;;;;;;;25.75;58.18;100673.44;108040;1279;60563;-83
2022/06/27 09:31:45;;;;;;;4.70;3.70;;;;;;;25.93;57.85;100672.02;108136;1278;59927;-83
2022/06/27 09:34:17;;;;;;;8.00;4.50;;;;;;;25.95;57.37;100668.65;108001;1279;77289;-83
2022/06/27 09:36:50;;;;;;;5.40;3.90;;;;;;;25.94;57.82;100666.81;108086;1279;70712;-83
2022/06/27 09:39:37;;;;;;;6.70;3.90;;;;;;;26.02;58.20;100668.73;107995;1279;74271;-84
2022/06/27 09:42:07;;;;;;;3.90;2.80;;;;;;;26.01;57.08;100669.72;108030;1278;61546;-85
2022/06/27 09:44:38;;;;;;;4.80;3.40;;;;;;;25.88;57.06;100663.12;108038;1279;60417;-81
2022/06/27 09:47:08;;;;;;;5.20;3.20;;;;;;;25.89;57.08;100656.54;107973;1279;76654;-84
2022/06/27 09:49:38;;;;;;;4.60;3.00;;;;;;;25.91;57.11;100662.42;108056;1278;71484;-84
2022/06/27 09:52:11;;;;;;;7.70;3.00;;;;;;;25.91;56.88;100658.99;107846;1279;74187;-84
2022/06/27 09:54:41;;;;;;;4.90;3.30;;;;;;;26.15;57.85;100656.77;107979;1279;63298;-84
2022/06/27 09:57:09;;;;;;;5.90;3.50;;;;;;;26.41;56.55;100662.15;107825;1279;60396;-84
2022/06/27 09:59:42;;;;;;;4.10;2.50;;;;;;;26.32;55.84;100665.33;107971;1279;76130;-83
2022/06/27 10:02:11;;;;;;;5.50;3.50;;;;;;;26.24;56.12;100672.77;107978;1280;71596;-84
2022/06/27 10:04:38;;;;;;;4.90;3.00;;;;;;;26.30;55.39;100689.96;107890;1279;73986;-84
2022/06/27 10:07:08;;;;;;;3.60;2.90;;;;;;;26.35;55.70;100691.14;108026;1279;62892;-82
2022/06/27 10:09:36;;;;;;;5.00;3.10;;;;;;;26.30;55.99;100682.67;108043;1280;61880;-84
2022/06/27 10:12:22;;;;;;;4.90;2.80;;;;;;;26.37;56.45;100670.77;108083;1279;75295;-83
2022/06/27 10:15:19;;;;;;;7.00;3.40;;;;;;;26.60;56.78;100668.42;108074;1279;71581;-82
2022/06/27 10:17:45;;;;;;;4.80;3.00;;;;;;;26.86;55.08;100674.06;108059;1279;73070;-82
2022/06/27 10:20:19;;;;;;;5.90;3.50;;;;;;;27.13;54.66;100676.06;108059;1280;61854;-83
2022/06/27 10:23:08;;;;;;;8.20;7.10;;;;;;;27.46;54.00;100674.63;108054;1280;60668;-83
2022/06/27 10:25:36;;;;;;;4.10;2.50;;;;;;;27.48;52.75;100674.05;108034;1279;75729;-83
2022/06/27 10:28:13;;;;;;;5.60;2.90;;;;;;;27.33;52.56;100676.56;107967;1279;72816;-82
2022/06/27 10:30:47;;;;;;;4.00;2.60;;;;;;;27.22;53.31;100675.61;108064;1279;72952;-82
2022/06/27 10:33:26;;;;;;;4.30;3.10;;;;;;;27.04;53.54;100666.82;107929;1279;61642;-82
2022/06/27 10:36:01;;;;;;;5.60;2.50;;;;;;;26.86;53.83;100659.73;107989;1279;61850;-85
2022/06/27 10:38:31;;;;;;;5.50;2.90;;;;;;;26.75;54.10;100661.20;107981;1279;77300;-84
2022/06/27 10:40:59;;;;;;;3.60;3.30;;;;;;;26.73;53.70;100657.05;107753;1279;71017;-83
2022/06/27 10:43:48;;;;;;;6.40;3.40;;;;;;;26.86;53.95;100656.86;108003;1279;73773;-82
2022/06/27 10:46:15;;;;;;;7.60;5.00;;;;;;;27.06;53.28;100650.73;107996;1279;61411;-82
2022/06/27 10:48:46;;;;;;;6.70;2.80;;;;;;;27.32;52.98;100650.79;108069;1279;60671;-83
2022/06/27 10:51:30;;;;;;;11.60;5.90;;;;;;;27.59;53.27;100656.49;107890;1281;76748;-85
2022/06/27 10:54:06;;;;;;;4.40;2.80;;;;;;;27.89;52.93;100654.95;108017;1279;72520;-85
2022/06/27 10:56:44;;;;;;;7.60;3.40;;;;;;;28.08;51.65;100662.45;107958;1279;73998;-85
2022/06/27 10:59:29;;;;;;;2.80;2.30;;;;;;;28.30;50.71;100660.85;107745;1279;60762;-84
2022/06/27 11:02:00;;;;;;;5.10;4.40;;;;;;;28.48;49.51;100666.11;107965;1279;61654;-84
2022/06/27 11:04:28;;;;;;;4.30;2.40;;;;;;;28.67;49.03;100667.81;108008;1279;74373;-83
2022/06/27 11:06:59;;;;;;;6.90;2.80;;;;;;;28.92;49.16;100670.95;107997;1279;72385;-84
2022/06/27 11:09:47;;;;;;;3.70;2.50;;;;;;;28.96;47.91;100668.97;107691;1279;73082;-84
2022/06/27 11:12:18;;;;;;;6.80;3.60;;;;;;;28.91;48.17;100667.68;107821;1279;60498;-84
2022/06/27 11:14:54;;;;;;;4.90;4.40;;;;;;;28.89;48.07;100660.84;107994;1279;60006;-85
2022/06/27 11:17:29;;;;;;;5.40;3.50;;;;;;;28.97;48.89;100658.94;108373;1279;76502;-86
2022/06/27 11:20:15;;;;;;;5.00;3.30;;;;;;;29.23;48.11;100658.63;108431;1280;70840;-85
2022/06/27 11:23:03;;;;;;;6.10;3.70;;;;;;;29.59;47.40;100657.07;108245;1279;73230;-86
2022/06/27 11:25:30;;;;;;;7.20;3.70;;;;;;;29.63;47.15;100652.83;108163;1280;60749;-84
2022/06/27 11:27:58;;;;;;;4.10;2.90;;;;;;;29.60;47.16;100654.73;108076;1279;60326;-84
2022/06/27 11:33:22;;;;;;;3.20;2.60;;;;;;;29.34;47.14;100643.39;107865;1280;72723;-87
2022/06/27 11:35:50;;;;;;;6.60;2.70;;;;;;;29.25;47.45;100648.71;108026;1280;73038;-86
2022/06/27 11:38:39;;;;;;;5.80;3.00;;;;;;;29.03;47.51;100653.44;108152;1277;60481;-84
2022/06/27 11:41:08;;;;;;;3.20;2.60;;;;;;;28.76;47.66;100655.33;108052;1278;61640;-85
2022/06/27 11:43:46;;;;;;;4.20;2.80;;;;;;;28.35;48.98;100659.69;108165;1278;76001;-84
2022/06/27 11:46:36;;;;;;;5.60;3.60;;;;;;;27.94;50.35;100659.31;108038;1279;72601;-83
2022/06/27 11:49:10;;;;;;;4.00;3.70;;;;;;;27.69;51.34;100657.73;107959;1280;73973;-84
2022/06/27 11:51:38;;;;;;;;;;;;;;;27.49;52.30;100649.73;108147;1277;60663;-84
2022/06/27 11:54:10;;;;;;;4.20;3.80;;;;;;;27.40;52.58;100649.02;108097;1279;60286;-84
2022/06/27 11:56:44;;;;;;;7.40;4.10;;;;;;;27.26;53.08;100650.09;108180;1278;76216;-82
2022/06/27 11:59:31;;;;;;;5.20;3.50;;;;;;;27.10;53.73;100651.41;108158;1279;71550;-82
2022/06/27 12:02:03;;;;;;;5.00;4.50;;;;;;;26.94;54.71;100657.11;108079;1277;74896;-82
2022/06/27 12:04:32;;;;;;;4.80;4.40;;;;;;;26.92;55.42;100655.06;107824;1279;61307;-82
2022/06/27 12:07:08;;;;;;;5.70;5.20;;;;;;;26.88;55.57;100651.16;108009;1280;61267;-82
2022/06/27 12:09:51;;;;;;;6.20;5.00;;;;;;;26.96;55.33;100646.70;108037;1279;75805;-84
2022/06/27 12:12:20;;;;;;;7.50;6.20;;;;;;;27.03;55.38;100644.08;108068;1277;72509;-84
2022/06/27 12:14:48;;;;;;;5.70;4.60;;;;;;;27.16;55.07;100644.27;107937;1279;74307;-84
2022/06/27 12:17:16;;;;;;;6.10;4.50;;;;;;;27.21;55.15;100648.44;107863;1280;61802;-84
2022/06/27 12:19:44;;;;;;;5.70;5.20;;;;;;;27.27;55.07;100651.18;108204;1276;60289;-84
2022/06/27 12:22:12;;;;;;;6.30;5.20;;;;;;;27.21;55.41;100658.35;107912;1280;77020;-84
2022/06/27 12:24:59;;;;;;;4.20;3.80;;;;;;;27.08;55.59;100667.45;107853;1277;73266;-84
2022/06/27 12:27:26;;;;;;;5.90;5.10;;;;;;;26.94;55.99;100663.05;108038;1280;72729;-84
2022/06/27 12:29:55;;;;;;;5.50;4.90;;;;;;;26.90;56.15;100659.70;108123;1278;60667;-85
2022/06/27 12:32:22;;;;;;;5.90;5.30;;;;;;;26.76;56.56;100665.42;108134;1277;61570;-85
2022/06/27 12:34:49;;;;;;;5.40;4.90;;;;;;;26.62;56.94;100670.91;107956;1278;77048;-85
2022/06/27 12:37:16;;;;;;;6.10;5.00;;;;;;;26.41;57.79;100677.55;108096;1279;72417;-86
2022/06/27 12:39:43;;;;;;;9.60;5.80;;;;;;;26.24;58.87;100678.20;108014;1277;74192;-86
2022/06/27 12:42:10;;;;;;;5.60;4.90;;;;;;;26.19;59.29;100675.88;108130;1277;59945;-84
2022/06/27 12:44:37;;;;;;;6.50;5.50;;;;;;;26.21;59.50;100685.45;108036;1279;61831;-84
2022/06/27 12:47:04;;;;;;;6.00;5.10;;;;;;;26.35;59.32;100687.05;107959;1280;75796;-84
2022/06/27 12:49:31;;;;;;;6.30;5.50;;;;;;;26.44;58.61;100687.80;108109;1277;71064;-84
2022/06/27 12:51:58;;;;;;;5.90;4.90;;;;;;;26.60;58.08;100689.26;107872;1277;72255;-84
2022/06/27 12:54:28;;;;;;;7.40;6.70;;;;;;;26.72;58.05;100690.16;108009;1280;61711;-84
2022/06/27 12:56:55;;;;;;;5.50;4.90;;;;;;;26.84;58.12;100695.41;107964;1278;61804;-84
2022/06/27 12:59:23;;;;;;;7.30;6.10;;;;;;;26.85;57.45;100691.16;108024;1278;76784;-84
2022/06/27 13:01:50;;;;;;;7.50;6.00;;;;;;;26.80;57.54;100695.33;108114;1278;70892;-84
2022/06/27 13:04:17;;;;;;;8.90;6.40;;;;;;;26.71;57.80;100695.81;108146;1277;72712;-84
2022/06/27 13:06:45;;;;;;;7.50;6.60;;;;;;;26.67;58.35;100692.48;108041;1278;61650;-84
2022/06/27 13:09:11;;;;;;;11.70;7.00;;;;;;;26.64;58.03;100689.08;108157;1277;59936;-84
2022/06/27 13:11:38;;;;;;;9.20;6.80;;;;;;;26.48;58.44;100696.06;108120;1277;75512;-85
2022/06/27 13:14:05;;;;;;;9.90;8.10;;;;;;;26.25;59.21;100700.00;107983;1278;72218;-82
2022/06/27 13:16:32;;;;;;;10.40;7.70;;;;;;;26.14;59.86;100699.96;108133;1278;76374;-83
2022/06/27 13:18:59;;;;;;;10.20;8.00;;;;;;;26.03;60.06;100706.46;107974;1277;62542;-84
2022/06/27 13:21:26;;;;;;;9.40;8.30;;;;;;;26.08;60.33;100700.12;108187;1278;60441;-84
2022/06/27 13:23:54;;;;;;;12.50;8.80;;;;;;;26.29;59.59;100707.05;108094;1278;75940;-86
2022/06/27 13:26:39;;;;;;;12.80;9.10;;;;;;;26.35;59.43;100708.16;108008;1277;72619;-85
2022/06/27 13:29:06;;;;;;;13.10;10.00;;;;;;;26.41;59.20;100703.39;108110;1277;72950;-84
2022/06/27 13:31:33;;;;;;;13.70;10.20;;;;;;;26.58;58.88;100694.88;108156;1278;60971;-84
2022/06/27 13:34:00;;;;;;;16.10;8.50;;;;;;;26.75;58.23;100683.60;107868;1278;61945;-83
2022/06/27 13:36:27;;;;;;;11.50;9.60;;;;;;;27.00;57.64;100667.94;108073;1280;75904;-85
2022/06/27 13:38:54;;;;;;;9.40;8.40;;;;;;;28.35;54.84;100671.27;108246;1277;71412;-85
2022/06/27 13:41:22;;;;;;;10.10;7.40;;;;;;;29.85;50.64;100690.31;108047;1278;73172;-85
2022/06/27 13:43:48;;;;;;;12.90;8.40;;;;;;;30.00;49.34;100710.64;108031;1280;60419;-86
2022/06/27 13:46:15;;;;;;;9.40;6.50;;;;;;;29.78;48.78;100722.54;108199;1277;61389;-89
2022/06/27 13:49:03;;;;;;;8.90;8.00;;;;;;;29.65;48.80;100725.36;108195;1277;76686;-90